WetterOnline ( https://www.wetteronline.de )

Wetter aktuell Salzwedel

Aktuelles Wetter: Lüchow (18m)

6-stündlich | Neueste Meldungen
Ortszeit Temperatur Wetter
So, 26.09. 14:00 22.4° C bewölkt
So, 26.09. 8:00 13.8° C fast wolkenlos
So, 26.09. 2:00 12.9° C bedeckt
Sa, 25.09. 20:00 16.7° C leicht bewölkt
Sa, 25.09. 14:00 19.9° C bewölkt
Sa, 25.09. 8:00 15.9° C Sprühregen
Sa, 25.09. 2:00 16.7° C bewölkt
Fr, 24.09. 20:00 17.2° C Sprühregen
Ortszeit Temperatur Wetter
So, 26.09. 14:00 22.4° C bewölkt
So, 26.09. 13:50 22.4° C bewölkt
So, 26.09. 13:40 22.4° C bewölkt
So, 26.09. 13:30 21.7° C wolkig
So, 26.09. 13:20 21.7° C wolkig
So, 26.09. 13:10 22.3° C leicht bewölkt
So, 26.09. 13:00 21.8° C bewölkt
So, 26.09. 12:30 21.5° C bewölkt
So, 26.09. 12:00 21.2° C bedeckt
So, 26.09. 11:30 21.1° C bewölkt
So, 26.09. 11:00 19.6° C fast wolkenlos
Ortszeit Relative Feuchte Sichtweite
So, 26.09. 14:00 62% 50 km
So, 26.09. 8:00 96% 10 km
So, 26.09. 2:00 98% 6 km
Sa, 25.09. 20:00 91% 29 km
Sa, 25.09. 14:00 76% 30 km
Sa, 25.09. 8:00 91% 8 km
Sa, 25.09. 2:00 82% 23 km
Fr, 24.09. 20:00 81% 21 km
Ortszeit Relative Feuchte Sichtweite
So, 26.09. 14:00 62% 50 km
So, 26.09. 13:50 62% -
So, 26.09. 13:40 61% -
So, 26.09. 13:30 63% 60 km
So, 26.09. 13:20 63% -
So, 26.09. 13:10 61% -
So, 26.09. 13:00 64% 55 km
So, 26.09. 12:30 64% 40 km
So, 26.09. 12:00 67% 45 km
So, 26.09. 11:30 69% 45 km
So, 26.09. 11:00 73% 35 km
Ortszeit Niederschlagsmenge Niederschlagsart
So, 26.09. 14:00 0.1 l/m2 in 6 Std. Niederschlag
So, 26.09. 8:00 0.0 l/m2 in 12 Std. -
So, 26.09. 2:00 0.0 l/m2 in 6 Std. -
Sa, 25.09. 20:00 0.1 l/m2 in 12 Std. -
Sa, 25.09. 14:00 0.1 l/m2 in 6 Std. Regen
Sa, 25.09. 8:00 0.1 l/m2 in 12 Std. Regen
Sa, 25.09. 2:00 0.1 l/m2 in 6 Std. Sprühregen
Fr, 24.09. 20:00 0.1 l/m2 in 12 Std. Regen
Ortszeit Niederschlagsmenge Niederschlagsart
So, 26.09. 14:00 0.1 l/m2 in 1 Std. Niederschlag
So, 26.09. 13:50 keine Meldung -
So, 26.09. 13:40 keine Meldung -
So, 26.09. 13:30 0.0 l/m2 in 1 Std. -
So, 26.09. 13:20 keine Meldung -
So, 26.09. 13:10 keine Meldung -
So, 26.09. 13:00 0.0 l/m2 in 1 Std. -
So, 26.09. 12:30 0.0 l/m2 in 1 Std. -
So, 26.09. 12:00 0.0 l/m2 in 1 Std. -
So, 26.09. 11:30 0.0 l/m2 in 1 Std. -
So, 26.09. 11:00 0.0 l/m2 in 1 Std. -
Ortszeit Stärke Spitze Richtung
km/h Bft. km/h Grad Sektor
So, 26.09. 14:00 11 2 25 130° SO
So, 26.09. 8:00 4 1 7 70° O
So, 26.09. 2:00 0 0 11 - -
Sa, 25.09. 20:00 4 1 22 220° SW
Sa, 25.09. 14:00 14 3 29 240° SW
Sa, 25.09. 8:00 9 2 24 220° SW
Sa, 25.09. 2:00 14 3 29 230° SW
Fr, 24.09. 20:00 14 3 36 230° SW
Ortszeit Stärke Spitze Richtung
km/h Bft. km/h Grad Sektor
So, 26.09. 14:00 11 2 25 130° SO
So, 26.09. 13:50 11 2 - 130° SO
So, 26.09. 13:40 11 2 - 130° SO
So, 26.09. 13:30 14 3 25 110° O
So, 26.09. 13:20 14 3 - 110° O
So, 26.09. 13:10 13 3 - 120° SO
So, 26.09. 13:00 11 2 25 120° SO
So, 26.09. 12:30 11 2 22 130° SO
So, 26.09. 12:00 9 2 20 130° SO
So, 26.09. 11:30 9 2 17 130° SO
So, 26.09. 11:00 9 2 19 130° SO
Ortszeit Untergrenze Bedeckung Gattung
total tief tief mittel hoch
So, 26.09. 14:00 2100 m 8/8 7/8 - - -
So, 26.09. 8:00 9000 m 2/8 0/8 - - -
So, 26.09. 2:00 <30 m 8/8 0/8 - - -
Sa, 25.09. 20:00 750 m 3/8 3/8 - - -
Sa, 25.09. 14:00 600 m 7/8 7/8 - - -
Sa, 25.09. 8:00 330 m 7/8 7/8 - - -
Sa, 25.09. 2:00 1500 m 7/8 8/8 - - -
Fr, 24.09. 20:00 600 m 8/8 8/8 - - -
Ortszeit Bedeckungsgrad in Achtel und Wolkenuntergrenze
So, 26.09. 14:00 7(2100m) 8(3600m)
So, 26.09. 13:50 7(2100m) 8(3600m)
So, 26.09. 13:40 7(2100m) 8(3600m)
So, 26.09. 13:30 4(2100m) 5(3600m)
So, 26.09. 13:20 4(2100m) 5(3600m)
So, 26.09. 13:10 3(2400m) 4(3600m)
So, 26.09. 13:00 7(2400m) 7(3900m)
So, 26.09. 12:30 1(1800m) 7(2700m) 7(3900m)
So, 26.09. 12:00 8(1800m) 8(2400m)
So, 26.09. 11:30 7(1800m) 7(2400m)
So, 26.09. 11:00 1(1800m)
Ortszeit Luftdruck NN (hPa) Tendenz (hPa in 3 Std.)
So, 26.09. 14:00 1016 - 0,9
So, 26.09. 8:00 1017 - 0,4
So, 26.09. 2:00 1018 0,0
Sa, 25.09. 20:00 1017 + 0,8
Sa, 25.09. 14:00 1016 + 0,6
Sa, 25.09. 8:00 1014 + 0,7
Sa, 25.09. 2:00 1013 - 0,2
Fr, 24.09. 20:00 1013 + 0,2
Ortszeit Luftdruck NN (hPa) Tendenz (hPa in 3 Std.)
So, 26.09. 14:00 1016 - 0,9
So, 26.09. 13:50 1016 keine Meldung
So, 26.09. 13:40 1016 keine Meldung
So, 26.09. 13:30 1016 - 0,8
So, 26.09. 13:20 1016 keine Meldung
So, 26.09. 13:10 1016 keine Meldung
So, 26.09. 13:00 1017 - 0,6
So, 26.09. 12:30 1017 - 0,3
So, 26.09. 12:00 1017 - 0,3
So, 26.09. 11:30 1017 - 0,1
So, 26.09. 11:00 1017 + 0,1
Ortszeit Schneehöhe (cm)
So, 26.09. 14:00 -
So, 26.09. 8:00 -
So, 26.09. 2:00 -
Sa, 25.09. 20:00 -
Sa, 25.09. 14:00 -
Sa, 25.09. 8:00 -
Sa, 25.09. 2:00 -
Fr, 24.09. 20:00 -
Ortszeit Schneehöhe (cm)
So, 26.09. 14:00 -
So, 26.09. 13:50 -
So, 26.09. 13:40 -
So, 26.09. 13:30 -
So, 26.09. 13:20 -
So, 26.09. 13:10 -
So, 26.09. 13:00 -
So, 26.09. 12:30 -
So, 26.09. 12:00 -
So, 26.09. 11:30 -
So, 26.09. 11:00 -
Link zu dieser Seite / Seite empfehlen

Das Wetter in ...